Terminal Aerodrome Forecast
Issued by NWS

Current Version | Previous Version | Text Only | Print | Product List | Glossary On
Versions: 1 2 3 4 5 6 7 8 9 10 11 12
000
FTUS45 KREV 252300
TAFMMH
TAF
KMMH 252321Z 2600/2624 34012G24KT P6SM VCSH BKN040
     FM260400 31010KT P6SM BKN035
     FM261100 28008KT P6SM SCT030
      AMD NOT SKED 2602/2614=

USA.gov is the U.S. government's official web portal to all federal, state and local government web resources and services.